sensor_id;sensor_type;location;lat;lon;timestamp;P1;durP1;ratioP1;P2;durP2;ratioP2
30681;SDS011;17439;48.092;11.842;2024-01-30T00:00:25;8.73;;;2.65;;
30681;SDS011;17439;48.092;11.842;2024-01-30T00:02:51;7.00;;;3.15;;
30681;SDS011;17439;48.092;11.842;2024-01-30T00:05:18;4.53;;;2.47;;
30681;SDS011;17439;48.092;11.842;2024-01-30T00:07:45;6.57;;;2.45;;
30681;SDS011;17439;48.092;11.842;2024-01-30T00:10:12;5.00;;;2.65;;
30681;SDS011;17439;48.092;11.842;2024-01-30T00:12:38;5.95;;;2.50;;
30681;SDS011;17439;48.092;11.842;2024-01-30T00:15:05;6.80;;;2.70;;
30681;SDS011;17439;48.092;11.842;2024-01-30T00:17:32;5.50;;;2.92;;
30681;SDS011;17439;48.092;11.842;2024-01-30T00:19:59;6.78;;;3.00;;
30681;SDS011;17439;48.092;11.842;2024-01-30T00:22:26;7.03;;;2.10;;
30681;SDS011;17439;48.092;11.842;2024-01-30T00:24:53;6.00;;;2.47;;
30681;SDS011;17439;48.092;11.842;2024-01-30T00:27:19;5.35;;;2.90;;
30681;SDS011;17439;48.092;11.842;2024-01-30T00:29:46;6.13;;;2.67;;
30681;SDS011;17439;48.092;11.842;2024-01-30T00:32:13;5.78;;;2.22;;
30681;SDS011;17439;48.092;11.842;2024-01-30T00:34:41;5.43;;;2.17;;
30681;SDS011;17439;48.092;11.842;2024-01-30T00:37:08;3.97;;;2.10;;
30681;SDS011;17439;48.092;11.842;2024-01-30T00:39:35;4.15;;;2.50;;
30681;SDS011;17439;48.092;11.842;2024-01-30T00:42:02;5.85;;;2.60;;
30681;SDS011;17439;48.092;11.842;2024-01-30T00:44:29;4.45;;;2.33;;
30681;SDS011;17439;48.092;11.842;2024-01-30T00:46:56;4.88;;;2.30;;
30681;SDS011;17439;48.092;11.842;2024-01-30T00:49:22;4.43;;;2.45;;
30681;SDS011;17439;48.092;11.842;2024-01-30T00:51:49;6.35;;;3.10;;
30681;SDS011;17439;48.092;11.842;2024-01-30T00:54:16;5.95;;;2.45;;
30681;SDS011;17439;48.092;11.842;2024-01-30T00:56:43;4.32;;;2.40;;
30681;SDS011;17439;48.092;11.842;2024-01-30T00:59:10;8.93;;;2.25;;
30681;SDS011;17439;48.092;11.842;2024-01-30T01:01:38;5.35;;;2.30;;
30681;SDS011;17439;48.092;11.842;2024-01-30T01:04:05;7.00;;;2.67;;
30681;SDS011;17439;48.092;11.842;2024-01-30T01:06:31;5.00;;;3.05;;
30681;SDS011;17439;48.092;11.842;2024-01-30T01:08:58;5.22;;;2.67;;
30681;SDS011;17439;48.092;11.842;2024-01-30T01:11:28;4.22;;;2.03;;
30681;SDS011;17439;48.092;11.842;2024-01-30T01:13:55;3.88;;;2.25;;
30681;SDS011;17439;48.092;11.842;2024-01-30T01:16:22;9.05;;;2.50;;
30681;SDS011;17439;48.092;11.842;2024-01-30T01:18:48;6.35;;;3.15;;
30681;SDS011;17439;48.092;11.842;2024-01-30T01:21:15;9.60;;;3.47;;
30681;SDS011;17439;48.092;11.842;2024-01-30T01:23:42;7.55;;;2.80;;
30681;SDS011;17439;48.092;11.842;2024-01-30T01:26:09;8.20;;;3.00;;
30681;SDS011;17439;48.092;11.842;2024-01-30T01:28:35;5.38;;;2.78;;
30681;SDS011;17439;48.092;11.842;2024-01-30T01:31:02;6.25;;;3.17;;
30681;SDS011;17439;48.092;11.842;2024-01-30T01:33:29;6.88;;;2.83;;
30681;SDS011;17439;48.092;11.842;2024-01-30T01:35:56;8.43;;;3.20;;
30681;SDS011;17439;48.092;11.842;2024-01-30T01:38:22;6.97;;;2.80;;
30681;SDS011;17439;48.092;11.842;2024-01-30T01:40:49;5.97;;;2.88;;
30681;SDS011;17439;48.092;11.842;2024-01-30T01:43:16;6.80;;;3.00;;
30681;SDS011;17439;48.092;11.842;2024-01-30T01:45:43;4.93;;;3.03;;
30681;SDS011;17439;48.092;11.842;2024-01-30T01:48:13;5.57;;;2.58;;
30681;SDS011;17439;48.092;11.842;2024-01-30T01:50:40;7.13;;;2.95;;
30681;SDS011;17439;48.092;11.842;2024-01-30T01:53:09;7.07;;;2.80;;
30681;SDS011;17439;48.092;11.842;2024-01-30T01:55:36;6.43;;;2.65;;
30681;SDS011;17439;48.092;11.842;2024-01-30T01:58:03;4.30;;;2.33;;
30681;SDS011;17439;48.092;11.842;2024-01-30T02:00:31;5.40;;;2.65;;
30681;SDS011;17439;48.092;11.842;2024-01-30T02:02:58;6.93;;;3.17;;
30681;SDS011;17439;48.092;11.842;2024-01-30T02:05:26;8.60;;;3.22;;
30681;SDS011;17439;48.092;11.842;2024-01-30T02:07:52;5.35;;;2.25;;
30681;SDS011;17439;48.092;11.842;2024-01-30T02:10:21;5.32;;;2.33;;
30681;SDS011;17439;48.092;11.842;2024-01-30T02:12:48;4.15;;;2.67;;
30681;SDS011;17439;48.092;11.842;2024-01-30T02:15:15;6.72;;;3.28;;
30681;SDS011;17439;48.092;11.842;2024-01-30T02:17:42;4.18;;;2.63;;
30681;SDS011;17439;48.092;11.842;2024-01-30T02:20:09;4.85;;;2.83;;
30681;SDS011;17439;48.092;11.842;2024-01-30T02:22:36;5.63;;;2.83;;
30681;SDS011;17439;48.092;11.842;2024-01-30T02:25:04;3.72;;;1.95;;
30681;SDS011;17439;48.092;11.842;2024-01-30T02:27:31;3.45;;;1.80;;
30681;SDS011;17439;48.092;11.842;2024-01-30T02:29:57;4.53;;;2.60;;
30681;SDS011;17439;48.092;11.842;2024-01-30T02:32:24;5.25;;;2.53;;
30681;SDS011;17439;48.092;11.842;2024-01-30T02:34:51;4.43;;;2.40;;
30681;SDS011;17439;48.092;11.842;2024-01-30T02:37:18;5.82;;;2.47;;
30681;SDS011;17439;48.092;11.842;2024-01-30T02:39:45;3.80;;;2.28;;
30681;SDS011;17439;48.092;11.842;2024-01-30T02:42:11;4.55;;;2.47;;
30681;SDS011;17439;48.092;11.842;2024-01-30T02:44:38;3.92;;;2.20;;
30681;SDS011;17439;48.092;11.842;2024-01-30T02:47:05;6.47;;;2.63;;
30681;SDS011;17439;48.092;11.842;2024-01-30T02:49:32;4.85;;;2.65;;
30681;SDS011;17439;48.092;11.842;2024-01-30T02:51:59;5.10;;;2.47;;
30681;SDS011;17439;48.092;11.842;2024-01-30T02:54:25;6.85;;;2.90;;
30681;SDS011;17439;48.092;11.842;2024-01-30T02:56:52;4.93;;;2.20;;
30681;SDS011;17439;48.092;11.842;2024-01-30T02:59:19;3.42;;;2.10;;
30681;SDS011;17439;48.092;11.842;2024-01-30T03:01:46;4.40;;;2.00;;
30681;SDS011;17439;48.092;11.842;2024-01-30T03:04:13;4.87;;;2.43;;
30681;SDS011;17439;48.092;11.842;2024-01-30T03:06:44;5.73;;;2.63;;
30681;SDS011;17439;48.092;11.842;2024-01-30T03:09:11;3.58;;;1.98;;
30681;SDS011;17439;48.092;11.842;2024-01-30T03:11:38;5.28;;;2.40;;
30681;SDS011;17439;48.092;11.842;2024-01-30T03:14:05;3.22;;;1.95;;
30681;SDS011;17439;48.092;11.842;2024-01-30T03:16:32;2.63;;;1.77;;
30681;SDS011;17439;48.092;11.842;2024-01-30T03:18:58;4.28;;;1.95;;
30681;SDS011;17439;48.092;11.842;2024-01-30T03:21:25;4.45;;;2.25;;
30681;SDS011;17439;48.092;11.842;2024-01-30T03:23:52;2.60;;;1.77;;
30681;SDS011;17439;48.092;11.842;2024-01-30T03:26:19;4.15;;;2.80;;
30681;SDS011;17439;48.092;11.842;2024-01-30T03:28:46;4.43;;;2.33;;
30681;SDS011;17439;48.092;11.842;2024-01-30T03:31:13;4.30;;;1.88;;
30681;SDS011;17439;48.092;11.842;2024-01-30T03:33:40;4.88;;;2.28;;
30681;SDS011;17439;48.092;11.842;2024-01-30T03:36:08;3.75;;;1.63;;
30681;SDS011;17439;48.092;11.842;2024-01-30T03:38:35;4.55;;;1.83;;
30681;SDS011;17439;48.092;11.842;2024-01-30T03:41:02;3.60;;;1.48;;
30681;SDS011;17439;48.092;11.842;2024-01-30T03:43:29;3.60;;;1.60;;
30681;SDS011;17439;48.092;11.842;2024-01-30T03:45:55;3.75;;;1.80;;
30681;SDS011;17439;48.092;11.842;2024-01-30T03:48:22;5.35;;;2.78;;
30681;SDS011;17439;48.092;11.842;2024-01-30T03:50:49;4.03;;;1.75;;
30681;SDS011;17439;48.092;11.842;2024-01-30T03:53:16;3.05;;;1.65;;
30681;SDS011;17439;48.092;11.842;2024-01-30T03:55:43;2.85;;;1.70;;
30681;SDS011;17439;48.092;11.842;2024-01-30T03:58:10;5.18;;;2.33;;
30681;SDS011;17439;48.092;11.842;2024-01-30T04:00:37;4.77;;;2.10;;
30681;SDS011;17439;48.092;11.842;2024-01-30T04:03:04;3.63;;;1.60;;
30681;SDS011;17439;48.092;11.842;2024-01-30T04:05:31;5.82;;;1.92;;
30681;SDS011;17439;48.092;11.842;2024-01-30T04:07:58;4.72;;;1.65;;
30681;SDS011;17439;48.092;11.842;2024-01-30T04:10:25;4.87;;;1.47;;
30681;SDS011;17439;48.092;11.842;2024-01-30T04:12:52;6.93;;;1.77;;
30681;SDS011;17439;48.092;11.842;2024-01-30T04:15:19;2.75;;;1.65;;
30681;SDS011;17439;48.092;11.842;2024-01-30T04:17:46;4.45;;;1.90;;
30681;SDS011;17439;48.092;11.842;2024-01-30T04:20:15;2.75;;;1.60;;
30681;SDS011;17439;48.092;11.842;2024-01-30T04:22:45;3.65;;;1.80;;
30681;SDS011;17439;48.092;11.842;2024-01-30T04:25:13;4.32;;;1.65;;
30681;SDS011;17439;48.092;11.842;2024-01-30T04:27:40;2.67;;;1.60;;
30681;SDS011;17439;48.092;11.842;2024-01-30T04:30:07;3.83;;;1.92;;
30681;SDS011;17439;48.092;11.842;2024-01-30T04:32:34;7.40;;;1.83;;
30681;SDS011;17439;48.092;11.842;2024-01-30T04:35:01;4.35;;;1.63;;
30681;SDS011;17439;48.092;11.842;2024-01-30T04:37:33;3.45;;;1.70;;
30681;SDS011;17439;48.092;11.842;2024-01-30T04:39:59;3.95;;;1.85;;
30681;SDS011;17439;48.092;11.842;2024-01-30T04:42:26;5.40;;;1.70;;
30681;SDS011;17439;48.092;11.842;2024-01-30T04:44:53;5.13;;;1.85;;
30681;SDS011;17439;48.092;11.842;2024-01-30T04:47:19;3.90;;;1.67;;
30681;SDS011;17439;48.092;11.842;2024-01-30T04:49:46;3.65;;;1.42;;
30681;SDS011;17439;48.092;11.842;2024-01-30T04:52:13;3.42;;;1.50;;
30681;SDS011;17439;48.092;11.842;2024-01-30T04:54:40;2.15;;;1.33;;
30681;SDS011;17439;48.092;11.842;2024-01-30T04:57:07;3.05;;;1.33;;
30681;SDS011;17439;48.092;11.842;2024-01-30T04:59:33;5.10;;;1.05;;
30681;SDS011;17439;48.092;11.842;2024-01-30T05:02:00;3.53;;;1.27;;
30681;SDS011;17439;48.092;11.842;2024-01-30T05:04:27;1.60;;;1.00;;
30681;SDS011;17439;48.092;11.842;2024-01-30T05:06:54;4.70;;;1.60;;
30681;SDS011;17439;48.092;11.842;2024-01-30T05:09:20;4.90;;;1.73;;
30681;SDS011;17439;48.092;11.842;2024-01-30T05:11:47;3.72;;;1.73;;
30681;SDS011;17439;48.092;11.842;2024-01-30T05:14:14;4.13;;;1.60;;
30681;SDS011;17439;48.092;11.842;2024-01-30T05:16:41;8.60;;;1.73;;
30681;SDS011;17439;48.092;11.842;2024-01-30T05:19:07;2.47;;;1.88;;
30681;SDS011;17439;48.092;11.842;2024-01-30T05:21:34;4.40;;;1.55;;
30681;SDS011;17439;48.092;11.842;2024-01-30T05:24:01;2.60;;;1.40;;
30681;SDS011;17439;48.092;11.842;2024-01-30T05:26:28;3.95;;;1.27;;
30681;SDS011;17439;48.092;11.842;2024-01-30T05:28:54;2.88;;;2.20;;
30681;SDS011;17439;48.092;11.842;2024-01-30T05:31:21;3.38;;;1.60;;
30681;SDS011;17439;48.092;11.842;2024-01-30T05:33:48;8.07;;;1.40;;
30681;SDS011;17439;48.092;11.842;2024-01-30T05:36:15;3.38;;;1.38;;
30681;SDS011;17439;48.092;11.842;2024-01-30T05:38:42;4.82;;;1.48;;
30681;SDS011;17439;48.092;11.842;2024-01-30T05:41:08;2.63;;;1.25;;
30681;SDS011;17439;48.092;11.842;2024-01-30T05:43:35;3.97;;;1.15;;
30681;SDS011;17439;48.092;11.842;2024-01-30T05:46:02;4.25;;;1.33;;
30681;SDS011;17439;48.092;11.842;2024-01-30T05:48:28;3.58;;;1.20;;
30681;SDS011;17439;48.092;11.842;2024-01-30T05:50:55;4.28;;;1.58;;
30681;SDS011;17439;48.092;11.842;2024-01-30T05:53:22;3.47;;;1.30;;
30681;SDS011;17439;48.092;11.842;2024-01-30T05:55:49;18.65;;;2.08;;
30681;SDS011;17439;48.092;11.842;2024-01-30T05:58:15;2.33;;;1.38;;
30681;SDS011;17439;48.092;11.842;2024-01-30T06:00:42;4.18;;;1.08;;
30681;SDS011;17439;48.092;11.842;2024-01-30T06:03:09;5.80;;;1.30;;
30681;SDS011;17439;48.092;11.842;2024-01-30T06:05:36;1.23;;;0.90;;
30681;SDS011;17439;48.092;11.842;2024-01-30T06:08:03;2.38;;;1.08;;
30681;SDS011;17439;48.092;11.842;2024-01-30T06:10:30;7.80;;;2.20;;
30681;SDS011;17439;48.092;11.842;2024-01-30T06:12:56;3.22;;;1.13;;
30681;SDS011;17439;48.092;11.842;2024-01-30T06:15:23;1.35;;;0.98;;
30681;SDS011;17439;48.092;11.842;2024-01-30T06:17:50;3.35;;;1.60;;
30681;SDS011;17439;48.092;11.842;2024-01-30T06:20:17;2.17;;;1.23;;
30681;SDS011;17439;48.092;11.842;2024-01-30T06:22:44;1.77;;;0.93;;
30681;SDS011;17439;48.092;11.842;2024-01-30T06:25:11;2.92;;;1.63;;
30681;SDS011;17439;48.092;11.842;2024-01-30T06:27:37;6.03;;;1.10;;
30681;SDS011;17439;48.092;11.842;2024-01-30T06:30:04;6.07;;;1.15;;
30681;SDS011;17439;48.092;11.842;2024-01-30T06:32:31;5.13;;;1.50;;
30681;SDS011;17439;48.092;11.842;2024-01-30T06:34:58;2.42;;;0.90;;
30681;SDS011;17439;48.092;11.842;2024-01-30T06:37:25;3.35;;;1.33;;
30681;SDS011;17439;48.092;11.842;2024-01-30T06:39:52;3.75;;;1.40;;
30681;SDS011;17439;48.092;11.842;2024-01-30T06:42:19;3.22;;;0.90;;
30681;SDS011;17439;48.092;11.842;2024-01-30T06:44:46;7.28;;;0.88;;
30681;SDS011;17439;48.092;11.842;2024-01-30T06:47:13;3.13;;;1.75;;
30681;SDS011;17439;48.092;11.842;2024-01-30T06:49:40;3.38;;;1.55;;
30681;SDS011;17439;48.092;11.842;2024-01-30T06:52:06;3.80;;;1.10;;
30681;SDS011;17439;48.092;11.842;2024-01-30T06:54:33;8.60;;;1.67;;
30681;SDS011;17439;48.092;11.842;2024-01-30T06:57:00;3.63;;;1.05;;
30681;SDS011;17439;48.092;11.842;2024-01-30T06:59:27;14.48;;;1.75;;
30681;SDS011;17439;48.092;11.842;2024-01-30T07:01:54;8.50;;;1.92;;
30681;SDS011;17439;48.092;11.842;2024-01-30T07:04:21;5.05;;;1.77;;
30681;SDS011;17439;48.092;11.842;2024-01-30T07:06:48;8.75;;;1.70;;
30681;SDS011;17439;48.092;11.842;2024-01-30T07:09:17;4.72;;;1.50;;
30681;SDS011;17439;48.092;11.842;2024-01-30T07:11:44;9.00;;;1.65;;
30681;SDS011;17439;48.092;11.842;2024-01-30T07:14:11;4.00;;;1.60;;
30681;SDS011;17439;48.092;11.842;2024-01-30T07:16:37;9.25;;;1.90;;
30681;SDS011;17439;48.092;11.842;2024-01-30T07:19:04;3.92;;;1.98;;
30681;SDS011;17439;48.092;11.842;2024-01-30T07:21:31;5.90;;;1.92;;
30681;SDS011;17439;48.092;11.842;2024-01-30T07:23:58;11.32;;;2.25;;
30681;SDS011;17439;48.092;11.842;2024-01-30T07:26:24;2.28;;;1.48;;
30681;SDS011;17439;48.092;11.842;2024-01-30T07:28:51;8.20;;;2.15;;
30681;SDS011;17439;48.092;11.842;2024-01-30T07:31:18;7.50;;;2.28;;
30681;SDS011;17439;48.092;11.842;2024-01-30T07:33:44;4.50;;;1.83;;
30681;SDS011;17439;48.092;11.842;2024-01-30T07:36:11;5.45;;;1.50;;
30681;SDS011;17439;48.092;11.842;2024-01-30T07:38:38;4.75;;;1.83;;
30681;SDS011;17439;48.092;11.842;2024-01-30T07:41:05;4.20;;;1.98;;
30681;SDS011;17439;48.092;11.842;2024-01-30T07:43:35;3.63;;;2.10;;
30681;SDS011;17439;48.092;11.842;2024-01-30T07:46:01;10.50;;;2.28;;
30681;SDS011;17439;48.092;11.842;2024-01-30T07:48:28;5.65;;;2.25;;
30681;SDS011;17439;48.092;11.842;2024-01-30T07:50:55;6.10;;;2.60;;
30681;SDS011;17439;48.092;11.842;2024-01-30T07:53:22;3.70;;;1.95;;
30681;SDS011;17439;48.092;11.842;2024-01-30T07:55:48;6.18;;;2.38;;
30681;SDS011;17439;48.092;11.842;2024-01-30T07:58:15;5.47;;;2.53;;
30681;SDS011;17439;48.092;11.842;2024-01-30T08:00:42;6.03;;;1.73;;
30681;SDS011;17439;48.092;11.842;2024-01-30T08:03:09;3.80;;;2.13;;
30681;SDS011;17439;48.092;11.842;2024-01-30T08:05:35;3.83;;;1.45;;
30681;SDS011;17439;48.092;11.842;2024-01-30T08:08:02;2.30;;;1.40;;
30681;SDS011;17439;48.092;11.842;2024-01-30T08:10:29;5.07;;;1.23;;
30681;SDS011;17439;48.092;11.842;2024-01-30T08:12:56;5.85;;;1.40;;
30681;SDS011;17439;48.092;11.842;2024-01-30T08:15:23;2.13;;;1.13;;
30681;SDS011;17439;48.092;11.842;2024-01-30T08:17:49;4.05;;;1.27;;
30681;SDS011;17439;48.092;11.842;2024-01-30T08:20:16;2.55;;;1.08;;
30681;SDS011;17439;48.092;11.842;2024-01-30T08:22:43;6.35;;;1.33;;
30681;SDS011;17439;48.092;11.842;2024-01-30T08:25:10;3.65;;;1.40;;
30681;SDS011;17439;48.092;11.842;2024-01-30T08:27:37;4.22;;;1.23;;
30681;SDS011;17439;48.092;11.842;2024-01-30T08:30:05;3.08;;;1.17;;
30681;SDS011;17439;48.092;11.842;2024-01-30T08:32:33;19.35;;;4.57;;
30681;SDS011;17439;48.092;11.842;2024-01-30T08:35:00;11.23;;;4.43;;
30681;SDS011;17439;48.092;11.842;2024-01-30T08:37:27;14.30;;;5.23;;
30681;SDS011;17439;48.092;11.842;2024-01-30T08:39:54;14.80;;;4.88;;
30681;SDS011;17439;48.092;11.842;2024-01-30T08:42:21;8.35;;;3.67;;
30681;SDS011;17439;48.092;11.842;2024-01-30T08:44:50;8.25;;;2.90;;
30681;SDS011;17439;48.092;11.842;2024-01-30T08:47:16;6.43;;;2.53;;
30681;SDS011;17439;48.092;11.842;2024-01-30T08:49:43;5.35;;;2.17;;
30681;SDS011;17439;48.092;11.842;2024-01-30T08:52:10;3.50;;;1.65;;
30681;SDS011;17439;48.092;11.842;2024-01-30T08:54:37;6.90;;;2.75;;
30681;SDS011;17439;48.092;11.842;2024-01-30T08:57:04;3.63;;;1.85;;
30681;SDS011;17439;48.092;11.842;2024-01-30T08:59:31;3.50;;;2.08;;
30681;SDS011;17439;48.092;11.842;2024-01-30T09:01:58;3.95;;;1.88;;
30681;SDS011;17439;48.092;11.842;2024-01-30T09:04:37;2.55;;;1.70;;
30681;SDS011;17439;48.092;11.842;2024-01-30T09:07:04;5.35;;;2.10;;
30681;SDS011;17439;48.092;11.842;2024-01-30T09:09:31;2.92;;;2.03;;
30681;SDS011;17439;48.092;11.842;2024-01-30T09:11:58;4.60;;;2.15;;
30681;SDS011;17439;48.092;11.842;2024-01-30T09:14:25;6.60;;;2.97;;
30681;SDS011;17439;48.092;11.842;2024-01-30T09:16:51;4.82;;;2.20;;
30681;SDS011;17439;48.092;11.842;2024-01-30T09:19:18;2.97;;;1.83;;
30681;SDS011;17439;48.092;11.842;2024-01-30T09:21:45;3.25;;;1.75;;
30681;SDS011;17439;48.092;11.842;2024-01-30T09:24:12;3.50;;;1.80;;
30681;SDS011;17439;48.092;11.842;2024-01-30T09:26:38;3.95;;;1.58;;
30681;SDS011;17439;48.092;11.842;2024-01-30T09:29:05;3.63;;;1.55;;
30681;SDS011;17439;48.092;11.842;2024-01-30T09:31:32;2.67;;;1.80;;
30681;SDS011;17439;48.092;11.842;2024-01-30T09:33:59;4.03;;;1.60;;
30681;SDS011;17439;48.092;11.842;2024-01-30T09:36:25;3.80;;;1.85;;
30681;SDS011;17439;48.092;11.842;2024-01-30T09:38:52;3.53;;;1.80;;
30681;SDS011;17439;48.092;11.842;2024-01-30T09:41:19;2.03;;;1.75;;
30681;SDS011;17439;48.092;11.842;2024-01-30T09:43:49;8.98;;;2.47;;
30681;SDS011;17439;48.092;11.842;2024-01-30T09:46:17;5.13;;;2.50;;
30681;SDS011;17439;48.092;11.842;2024-01-30T09:48:46;11.75;;;2.20;;
30681;SDS011;17439;48.092;11.842;2024-01-30T09:51:14;5.15;;;2.20;;
30681;SDS011;17439;48.092;11.842;2024-01-30T09:53:42;4.63;;;1.73;;
30681;SDS011;17439;48.092;11.842;2024-01-30T09:56:09;9.57;;;2.10;;
30681;SDS011;17439;48.092;11.842;2024-01-30T09:58:36;6.93;;;1.67;;
30681;SDS011;17439;48.092;11.842;2024-01-30T10:01:02;2.83;;;1.38;;
30681;SDS011;17439;48.092;11.842;2024-01-30T10:03:29;2.53;;;1.50;;
30681;SDS011;17439;48.092;11.842;2024-01-30T10:05:56;2.78;;;1.33;;
30681;SDS011;17439;48.092;11.842;2024-01-30T10:08:23;2.63;;;1.23;;
30681;SDS011;17439;48.092;11.842;2024-01-30T10:10:52;2.78;;;0.98;;
30681;SDS011;17439;48.092;11.842;2024-01-30T10:13:19;1.95;;;1.35;;
30681;SDS011;17439;48.092;11.842;2024-01-30T10:15:47;1.95;;;1.38;;
30681;SDS011;17439;48.092;11.842;2024-01-30T10:20:40;1.15;;;0.70;;
30681;SDS011;17439;48.092;11.842;2024-01-30T10:23:07;4.50;;;1.52;;
30681;SDS011;17439;48.092;11.842;2024-01-30T10:25:35;3.35;;;1.35;;
30681;SDS011;17439;48.092;11.842;2024-01-30T10:28:02;2.25;;;1.10;;
30681;SDS011;17439;48.092;11.842;2024-01-30T10:30:29;2.47;;;0.98;;
30681;SDS011;17439;48.092;11.842;2024-01-30T10:32:56;2.17;;;1.17;;
30681;SDS011;17439;48.092;11.842;2024-01-30T10:35:22;3.78;;;1.50;;
30681;SDS011;17439;48.092;11.842;2024-01-30T10:37:49;2.88;;;1.20;;
30681;SDS011;17439;48.092;11.842;2024-01-30T10:40:16;2.63;;;1.30;;
30681;SDS011;17439;48.092;11.842;2024-01-30T10:42:44;3.35;;;1.20;;
30681;SDS011;17439;48.092;11.842;2024-01-30T10:45:13;2.33;;;1.55;;
30681;SDS011;17439;48.092;11.842;2024-01-30T10:50:07;3.90;;;1.42;;
30681;SDS011;17439;48.092;11.842;2024-01-30T10:52:35;1.83;;;1.55;;
30681;SDS011;17439;48.092;11.842;2024-01-30T10:55:03;1.90;;;0.88;;
30681;SDS011;17439;48.092;11.842;2024-01-30T11:00:00;2.25;;;1.38;;
30681;SDS011;17439;48.092;11.842;2024-01-30T11:02:30;2.22;;;1.08;;
30681;SDS011;17439;48.092;11.842;2024-01-30T11:04:58;1.33;;;0.60;;
30681;SDS011;17439;48.092;11.842;2024-01-30T11:07:27;1.95;;;1.10;;
30681;SDS011;17439;48.092;11.842;2024-01-30T11:12:25;4.10;;;0.90;;
30681;SDS011;17439;48.092;11.842;2024-01-30T11:15:05;4.93;;;2.15;;
30681;SDS011;17439;48.092;11.842;2024-01-30T11:20:29;1.77;;;1.00;;
30681;SDS011;17439;48.092;11.842;2024-01-30T11:22:57;1.52;;;0.95;;
30681;SDS011;17439;48.092;11.842;2024-01-30T11:25:24;2.05;;;1.35;;
30681;SDS011;17439;48.092;11.842;2024-01-30T11:27:53;3.03;;;1.50;;
30681;SDS011;17439;48.092;11.842;2024-01-30T11:30:25;2.00;;;1.15;;
30681;SDS011;17439;48.092;11.842;2024-01-30T11:32:59;3.47;;;2.05;;
30681;SDS011;17439;48.092;11.842;2024-01-30T11:35:32;3.65;;;1.80;;
30681;SDS011;17439;48.092;11.842;2024-01-30T11:40:28;3.45;;;1.48;;
30681;SDS011;17439;48.092;11.842;2024-01-30T11:45:24;2.42;;;1.50;;
30681;SDS011;17439;48.092;11.842;2024-01-30T11:47:52;2.67;;;1.60;;
30681;SDS011;17439;48.092;11.842;2024-01-30T11:50:20;3.90;;;1.25;;
30681;SDS011;17439;48.092;11.842;2024-01-30T11:52:47;1.60;;;1.20;;
30681;SDS011;17439;48.092;11.842;2024-01-30T11:55:14;2.92;;;1.45;;
30681;SDS011;17439;48.092;11.842;2024-01-30T11:57:41;1.60;;;1.00;;
30681;SDS011;17439;48.092;11.842;2024-01-30T12:00:17;4.53;;;1.38;;
30681;SDS011;17439;48.092;11.842;2024-01-30T12:02:52;2.17;;;1.10;;
30681;SDS011;17439;48.092;11.842;2024-01-30T12:05:19;5.35;;;1.73;;
30681;SDS011;17439;48.092;11.842;2024-01-30T12:07:46;5.30;;;1.20;;
30681;SDS011;17439;48.092;11.842;2024-01-30T12:10:13;1.10;;;0.90;;
30681;SDS011;17439;48.092;11.842;2024-01-30T12:12:41;1.95;;;1.10;;
30681;SDS011;17439;48.092;11.842;2024-01-30T12:15:09;1.80;;;1.20;;
30681;SDS011;17439;48.092;11.842;2024-01-30T12:17:36;3.88;;;1.10;;
30681;SDS011;17439;48.092;11.842;2024-01-30T12:20:07;2.78;;;1.20;;
30681;SDS011;17439;48.092;11.842;2024-01-30T12:22:42;4.75;;;1.27;;
30681;SDS011;17439;48.092;11.842;2024-01-30T12:25:10;2.33;;;1.10;;
30681;SDS011;17439;48.092;11.842;2024-01-30T12:27:38;3.83;;;1.15;;
30681;SDS011;17439;48.092;11.842;2024-01-30T12:30:09;2.30;;;0.95;;
30681;SDS011;17439;48.092;11.842;2024-01-30T12:32:44;1.92;;;1.13;;
30681;SDS011;17439;48.092;11.842;2024-01-30T12:35:12;6.63;;;1.35;;
30681;SDS011;17439;48.092;11.842;2024-01-30T12:37:44;2.53;;;0.90;;
30681;SDS011;17439;48.092;11.842;2024-01-30T12:40:13;1.58;;;0.75;;
30681;SDS011;17439;48.092;11.842;2024-01-30T12:42:41;2.88;;;0.90;;
30681;SDS011;17439;48.092;11.842;2024-01-30T12:45:08;2.20;;;1.30;;
30681;SDS011;17439;48.092;11.842;2024-01-30T12:47:35;2.55;;;1.33;;
30681;SDS011;17439;48.092;11.842;2024-01-30T12:50:02;1.98;;;1.42;;
30681;SDS011;17439;48.092;11.842;2024-01-30T12:52:29;1.98;;;1.20;;
30681;SDS011;17439;48.092;11.842;2024-01-30T12:54:56;2.13;;;1.00;;
30681;SDS011;17439;48.092;11.842;2024-01-30T12:57:24;2.97;;;1.10;;
30681;SDS011;17439;48.092;11.842;2024-01-30T12:59:51;2.28;;;1.00;;
30681;SDS011;17439;48.092;11.842;2024-01-30T13:02:18;2.63;;;0.95;;
30681;SDS011;17439;48.092;11.842;2024-01-30T13:04:45;2.83;;;0.85;;
30681;SDS011;17439;48.092;11.842;2024-01-30T13:07:15;2.10;;;1.10;;
30681;SDS011;17439;48.092;11.842;2024-01-30T13:09:42;5.88;;;1.38;;
30681;SDS011;17439;48.092;11.842;2024-01-30T13:12:09;1.38;;;1.00;;
30681;SDS011;17439;48.092;11.842;2024-01-30T13:14:36;1.63;;;0.90;;
30681;SDS011;17439;48.092;11.842;2024-01-30T13:17:03;3.15;;;1.08;;
30681;SDS011;17439;48.092;11.842;2024-01-30T13:19:30;4.18;;;1.35;;
30681;SDS011;17439;48.092;11.842;2024-01-30T13:21:57;4.47;;;1.73;;
30681;SDS011;17439;48.092;11.842;2024-01-30T13:24:24;4.65;;;1.70;;
30681;SDS011;17439;48.092;11.842;2024-01-30T13:26:51;6.00;;;2.28;;
30681;SDS011;17439;48.092;11.842;2024-01-30T13:29:18;12.68;;;1.70;;
30681;SDS011;17439;48.092;11.842;2024-01-30T13:31:45;3.75;;;1.63;;
30681;SDS011;17439;48.092;11.842;2024-01-30T13:34:12;3.30;;;0.93;;
30681;SDS011;17439;48.092;11.842;2024-01-30T13:36:39;2.22;;;1.00;;
30681;SDS011;17439;48.092;11.842;2024-01-30T13:39:06;4.28;;;1.15;;
30681;SDS011;17439;48.092;11.842;2024-01-30T13:41:33;3.08;;;1.35;;
30681;SDS011;17439;48.092;11.842;2024-01-30T13:43:59;7.05;;;1.23;;
30681;SDS011;17439;48.092;11.842;2024-01-30T13:46:26;1.75;;;0.93;;
30681;SDS011;17439;48.092;11.842;2024-01-30T13:48:53;4.25;;;1.20;;
30681;SDS011;17439;48.092;11.842;2024-01-30T13:51:20;3.87;;;1.47;;
30681;SDS011;17439;48.092;11.842;2024-01-30T13:53:47;2.78;;;0.73;;
30681;SDS011;17439;48.092;11.842;2024-01-30T13:56:14;33.80;;;3.03;;
30681;SDS011;17439;48.092;11.842;2024-01-30T13:58:40;2.38;;;1.20;;
30681;SDS011;17439;48.092;11.842;2024-01-30T14:01:08;2.83;;;0.70;;
30681;SDS011;17439;48.092;11.842;2024-01-30T14:03:35;2.35;;;1.08;;
30681;SDS011;17439;48.092;11.842;2024-01-30T14:06:02;6.70;;;1.10;;
30681;SDS011;17439;48.092;11.842;2024-01-30T14:08:29;5.85;;;0.88;;
30681;SDS011;17439;48.092;11.842;2024-01-30T14:10:56;0.82;;;0.70;;
30681;SDS011;17439;48.092;11.842;2024-01-30T14:13:23;4.43;;;1.00;;
30681;SDS011;17439;48.092;11.842;2024-01-30T14:15:53;2.63;;;1.20;;
30681;SDS011;17439;48.092;11.842;2024-01-30T14:18:20;4.55;;;1.00;;
30681;SDS011;17439;48.092;11.842;2024-01-30T14:20:47;1.90;;;1.27;;
30681;SDS011;17439;48.092;11.842;2024-01-30T14:23:14;1.48;;;0.82;;
30681;SDS011;17439;48.092;11.842;2024-01-30T14:25:41;1.98;;;1.02;;
30681;SDS011;17439;48.092;11.842;2024-01-30T14:28:08;2.55;;;1.10;;
30681;SDS011;17439;48.092;11.842;2024-01-30T14:30:34;2.65;;;1.23;;
30681;SDS011;17439;48.092;11.842;2024-01-30T14:33:01;1.58;;;0.73;;
30681;SDS011;17439;48.092;11.842;2024-01-30T14:35:28;2.57;;;0.80;;
30681;SDS011;17439;48.092;11.842;2024-01-30T14:37:55;1.17;;;0.80;;
30681;SDS011;17439;48.092;11.842;2024-01-30T14:40:22;0.80;;;0.68;;
30681;SDS011;17439;48.092;11.842;2024-01-30T14:42:49;1.27;;;0.80;;
30681;SDS011;17439;48.092;11.842;2024-01-30T14:45:16;6.95;;;0.90;;
30681;SDS011;17439;48.092;11.842;2024-01-30T14:47:42;2.72;;;1.25;;
30681;SDS011;17439;48.092;11.842;2024-01-30T14:50:09;2.60;;;1.20;;